AirNav   Pilot Hours Calculator
 
 1503 users online  

17M Magee Municipal Airport
Magee, Mississippi, USA

GOING TO MAGEE?


FAA INFORMATION EFFECTIVE 16 JUNE 2022

Location

FAA Identifier: 17M
Lat/Long: 31-51-45.9540N 089-48-02.2120W
31-51.765900N 089-48.036867W
31.8627650,-89.8006144
(estimated)
Elevation: 555.8 ft. / 169.4 m (surveyed)
Variation: 01W (2015)
From city: 3 miles W of MAGEE, MS
Time zone: UTC -5 (UTC -6 during Standard Time)
Zip code: 39111

Airport Operations

Airport use: Open to the public
Control tower: no
ARTCC: MEMPHIS CENTER
FSS: GREENWOOD FLIGHT SERVICE STATION
NOTAMs facility: GWO (NOTAM-D service available)
Attendance: CONTINUOUS
Wind indicator: lighted
Segmented circle: yes
Lights: ACTVT MIRL RWY 18/36 - CTAF.
Beacon: white-green (lighted land airport)
Operates sunset to sunrise.

Airport Communications

CTAF/UNICOM: 122.8
  • APCH/DEP SVC PRVDD BY MEMPHIS ARTCC ON FREQS 125.975/307.275 (MERIDIAN RCAG).

Airport Services

Fuel available: 100LL JET-A1
100LL:FUEL AVBL 24 HRS WITH CREDIT CARD.
Parking: tiedowns
Airframe service: NONE
Powerplant service: NONE
Bottled oxygen: NONE
Bulk oxygen: NONE

Runway Information

Runway 18/36

Dimensions: 3103 x 60 ft. / 946 x 18 m
Surface: asphalt, in excellent condition
Weight bearing capacity: 
PCN 15 /F/C/Y/T
Single wheel: 19.0
Runway edge lights: medium intensity
RUNWAY 18  RUNWAY 36
Latitude: 31-52.021797N31-51.510000N
Longitude: 089-48.039975W089-48.033763W
Elevation: 553.2 ft.548.9 ft.
Traffic pattern: leftleft
Runway heading: 180 magnetic, 179 true000 magnetic, 359 true
Markings: nonprecision, in good conditionnonprecision, in good condition
Visual slope indicator: 2-light PAPI on left (3.00 degrees glide path)
Touchdown point: yes, no lightsyes, no lights
Obstructions: 50 ft. trees, 1250 ft. from runway, 250 ft. left of centerline, 21:1 slope to clear80 ft. trees, 2500 ft. from runway, 28:1 slope to clear

Airport Ownership and Management from official FAA records

Ownership: Publicly-owned
Owner: CITY OF MAGEE
123 N. MAIN ST.
MAGEE, MS 39111
Phone 601-849-3344
Manager: ASHLEY STEELE
111 PRINE DR.
MAGEE, MS 39111
Phone 601-382-5752

Airport Operational Statistics

Aircraft based on the field: 11
Single engine airplanes: 10
Multi engine airplanes: 1
    
Aircraft operations: avg 23/day *
59% transient general aviation
37% local general aviation
4% military
* for 12-month period ending 21 April 2021

Additional Remarks

RY 36 4 FT DEEP DITCH 250 FT FROM THR.
FOR CD CTC MEMPHIS ARTCC AT 901-368-8453/8449.

Instrument Procedures

NOTE: All procedures below are presented as PDF files. If you need a reader for these files, you should download the free Adobe Reader.

NOT FOR NAVIGATION. Please procure official charts for flight.
FAA instrument procedures published for use from 16 June 2022 at 0901Z to 14 July 2022 at 0900z.

 
IAPs - Instrument Approach Procedures
RNAV (GPS) RWY 18   download (194KB)
RNAV (GPS) RWY 36   download (192KB)
NOTE: Special Take-Off Minimums/Departure Procedures apply   download

Other nearby airports with instrument procedures:

M43 - Prentiss-Jefferson Davis County Airport (17 nm S)
M11 - Copiah County Airport (29 nm W)
KJAN - Jackson-Medgar Wiley Evers International Airport (30 nm NW)
KPIB - Hattiesburg/Laurel Regional Airport (34 nm SE)
0R0 - Columbia/Marion County Airport (34 nm S)
 
Loc | Ops | Rwys | IFR | FBO | Links
Com | Nav | Svcs | Stats | Notes
Area around 17M (Magee Municipal Airport)
 
Road maps at: MapQuest Bing Google
 
Aerial photo
WARNING: Photo may not be current or correct
Aerial photo of 17M (Magee Municipal Airport)
Photo by Winnfort Myles
Photo taken 17-Oct-2009

Do you have a better or more recent aerial photo of Magee Municipal Airport that you would like to share? If so, please send us your photo.

 
Sectional chart

 
Airport distance calculator
Flying to Magee Municipal Airport? Find the distance to fly.

From to 17M

Sunrise and sunset
Times for 28-Jun-2022
 Local
(UTC-5)
 Zulu
(UTC)
Morning civil twilight05:2910:29
Sunrise05:5710:57
Sunset20:0801:08
Evening civil twilight20:3601:36

Current date and time
Zulu (UTC)  28-Jun-2022 20:50:55
Local (UTC-5)  28-Jun-2022 15:50:55
 
METAR
KJAN 
31nm NW 
282036Z 34007KT 300V360 10SM BKN043 33/21 A3007 RMK AO2 LTG DSNT S AND SW TSE15 T03280211
KLUL 
34nm SE 
282035Z AUTO 35009KT 10SM SCT041 31/21 A3005 RMK A02 T03110206
K0R0 
34nm S 
282035Z AUTO 36008KT 330V040 10SM FEW045 33/22 A3007 RMK AO2
KPIB 
34nm SE 
281956Z AUTO 03007KT 10SM CLR 32/24 A3007 RMK AO2 LTG DSNT NW SLP178 T03220239
K1R7 
35nm SW 
282035Z AUTO 00000KT 6SM BR 22/22 A3009 RMK AO2 LTG DSNT S-NW PWINO
KHKS 
35nm NW 
281953Z 02006KT 10SM SCT045 BKN055 BKN065 32/21 A3008 RMK AO2 LTG DSNT SE AND S SLP177 T03170206
KMBO 
38nm NW 
282035Z AUTO VRB04KT 10SM FEW044 31/21 A3007 RMK AO2
KJVW 
41nm NW 
282035Z AUTO VRB04G10KT 10SM SCT044 SCT060 SCT090 32/23 A3007 RMK AO2
KHBG 
46nm SE 
281953Z AUTO 10SM FEW046 34/22 A3004 RMK AO2 LTG DSNT NW SLP171 T03390222
TAF
KJAN 
31nm NW 
281727Z 2818/2918 03006KT P6SM SCT070 SCT150 BKN250 FM282000 03006KT P6SM VCTS SCT050CB SCT100 BKN250 FM290000 01003KT P6SM BKN250
KPIB 
34nm SE 
281727Z 2818/2918 07007KT P6SM VCSH SCT035 SCT070 FM282000 05005KT P6SM -TSRA BKN035CB BKN070 FM290000 00000KT P6SM SCT070 BKN120 FM291500 11004KT P6SM BKN050 BKN100
KHKS 
35nm NW 
281727Z 2818/2918 03006KT P6SM SCT070 SCT150 BKN250 FM282000 03006KT P6SM VCTS SCT050CB SCT100 BKN250 FM290000 01003KT P6SM BKN250
NOTAMs
Click for the latest NOTAMs
NOTAMs are issued by the DoD/FAA and will open in a separate window not controlled by AirNav.

 

 
 

FBO, Fuel Providers, and Aircraft Ground Support

  
 Business Name 
 
 Contact 
 
 Services / Description 
 
Fuel Prices
 
Comments
  
Magee Municipal Airport 601-849-3571
no information available

If you are affiliated with Magee Municipal Airport and would like to show here your services, contact info, web link, logo, and more, click here
100LL Jet A
SS $4.10 $6.00 
 Updated 21-Dec-2021
 
   1 read write
SS=Self service
Update Fuel Prices
 

Would you like to see your business listed on this page?

 If your business provides an interesting product or service to pilots, flight crews, aircraft, or users of the Magee Municipal Airport, you should consider listing it here.  To start the listing process, click on the button below
 
Add a business
 

Other Pages about Magee Municipal Airport

Update a link
 
Copyright © AirNav, LLC. All rights reserved. Privacy Policy  Contact